Hamburg, NY

10:28 AM EST on January 31, 2015 (GMT -0500)
Near Ralph Wilson Stadium | Change Station
CLOSE
Current Station
Personal Weather Station
Location: Hamburg, NY
Elevation: 770 ft
Nearby Weather Stations

Elev 770 ft 42.76 °N, 78.80 °W | Updated 4 seconds ago

Snow
Snow
17.2 °F
Feels Like 7 °F
N
8.0
Wind Variable Wind from WSW
Gusts 13.0 mph

Today
High -- | Low -- °F
--% Chance of Precip.
Yesterday
High -- | Low -- °F
Precip. -- in
7:30 AM 5:26 PM
Waxing Gibbous, 90% visible
Pressure 30.35 in
Visibility 10.0 miles
Clouds Overcast 3500 ft
Windchill 7 °F
Dew Point 12 °F
Humidity 79%
Rainfall 0.00 in
Snow Depth Not available.
UV 1.2 out of 12
Pollen .10 out of 12
Air Quality Not available.
Flu Activity Not available.
METAR KBUF 311454Z 20005KT 10SM OVC035 M11/M13 A3030 RMK AO2 SNE27 SLP278 P0000 60000 T11061133 58001

More Conditions Fewer Conditions

Pressure 30.35 in
Visibility 10.0 miles
Clouds Overcast 3500 ft
Windchill 7 °F
Dew Point 12 °F
Humidity 79%
Rainfall 0.00 in
Snow Depth Not available.
UV 1.2 out of 12
Pollen .10 out of 12
Air Quality Not available.
Flu Activity Not available.
METAR KBUF 311454Z 20005KT 10SM OVC035 M11/M13 A3030 RMK AO2 SNE27 SLP278 P0000 60000 T11061133 58001

More Conditions Fewer Conditions

10-Day Weather Forecast

Almanac

Astronomy

Jan. 31, 2015 Rise Set
Actual Time
Civil Twilight
Nautical Twilight
Astronomical Twilight
Moon
Length of Visible Light
Length of Day
Tomorrow will be .
, % of the Moon is Illuminated

Today's Extremes

State Highs State Lows

Community

WunderPhotos

Upload Photos

1,792,091 photos uploaded!

WunderBlogs® & News

Nearby

Air Quality

  Air Quality AQ Index Pollutant
Not available.

Snow Depth

Station Depth Elevation

Earthquake Activity

City Distance Mag. Time & Date
Minimum magnitude displayed is 2.5.

Coastal Water Temperatures

Place Temperature

Nearby Weather Stations